FDJR

Jericho

Jericho, Swaziland
METAR FDJR 250000Z AUTO 19004KT //// // ////// M20/M24 Q1019
Observed Flight Rules
May-25 @ 00:00 UTC (an hour ago)
Wind
190° at 4 knots
Temperatures Readings
Current -20°C / -4°F
Dewpoint -24°C / -11°F
Humidity 71%
Altimeter 30.09" Hg
Pressure 1019 hPa
Elevation 701
METAR FDJR 250000Z AUTO 19004KT //// // ////// M20/M24 Q1019
Observed Flight Rules
May-25 @ 00:00 UTC
(an hour ago)
Wind
190° at 4 knots
Temperature Dewpoint
-20°C / -4°F -24°C / -11°F
Humidity Altimeter Pressure
71% 30.09" Hg 1019 hPa